createdAt,value
2022-12-08T00:00:15.208Z,157.07
2022-12-08T00:02:45.698Z,163.60
2022-12-08T00:05:32.165Z,135.10
2022-12-08T00:08:18.292Z,160.50
2022-12-08T00:11:05.619Z,154.87
2022-12-08T00:13:34.483Z,149.00
2022-12-08T00:16:03.468Z,163.27
2022-12-08T00:18:33.803Z,170.93
2022-12-08T00:21:02.748Z,149.13
2022-12-08T00:23:50.156Z,146.37
2022-12-08T00:26:19.114Z,128.43
2022-12-08T00:28:48.116Z,138.77
2022-12-08T00:31:17.060Z,136.47
2022-12-08T00:33:47.624Z,116.20
2022-12-08T00:36:17.132Z,109.67
2022-12-08T00:38:48.236Z,106.60
2022-12-08T00:41:19.067Z,108.47
2022-12-08T00:44:07.143Z,117.03
2022-12-08T00:46:36.136Z,103.17
2022-12-08T00:49:07.088Z,101.17
2022-12-08T00:51:36.669Z,109.30
2022-12-08T00:54:06.191Z,103.70
2022-12-08T00:56:35.569Z,101.80
2022-12-08T00:59:05.695Z,115.10
2022-12-08T01:01:35.475Z,101.33
2022-12-08T01:04:07.714Z,100.37
2022-12-08T01:06:37.596Z,105.83
2022-12-08T01:09:09.518Z,104.83
2022-12-08T01:11:38.631Z,109.20
2022-12-08T01:14:07.505Z,103.70
2022-12-08T01:16:37.767Z,108.20
2022-12-08T01:19:10.917Z,108.53
2022-12-08T01:21:39.964Z,104.97
2022-12-08T01:24:11.935Z,105.17
2022-12-08T01:26:40.987Z,108.17
2022-12-08T01:29:10.135Z,104.10
2022-12-08T01:31:39.469Z,114.00
2022-12-08T01:34:10.362Z,113.13
2022-12-08T01:36:39.521Z,111.13
2022-12-08T01:39:12.112Z,113.93
2022-12-08T01:41:41.435Z,112.47
2022-12-08T01:44:47.420Z,107.33
2022-12-08T01:47:16.259Z,111.90
2022-12-08T01:49:46.767Z,111.23
2022-12-08T01:52:21.370Z,110.93
2022-12-08T01:54:55.034Z,106.97
2022-12-08T01:57:27.663Z,106.77
2022-12-08T02:00:05.159Z,103.23
2022-12-08T02:02:41.168Z,109.80
2022-12-08T02:05:12.345Z,106.50
2022-12-08T02:07:41.603Z,105.87
2022-12-08T02:10:12.194Z,98.07
2022-12-08T02:12:41.346Z,102.17
2022-12-08T02:15:11.224Z,95.60
2022-12-08T02:17:51.952Z,102.30
2022-12-08T02:20:49.340Z,93.97
2022-12-08T02:23:28.484Z,97.80
2022-12-08T02:26:23.838Z,93.47
2022-12-08T02:29:15.749Z,99.40
2022-12-08T02:31:58.205Z,99.27
2022-12-08T02:34:33.321Z,102.50
2022-12-08T02:37:09.494Z,100.30
2022-12-08T02:39:46.173Z,103.63
2022-12-08T02:42:24.415Z,100.70
2022-12-08T02:44:58.302Z,97.47
2022-12-08T02:47:29.577Z,94.27
2022-12-08T02:50:00.311Z,93.50
2022-12-08T02:52:47.375Z,89.20
2022-12-08T02:55:22.308Z,92.80
2022-12-08T02:58:20.294Z,99.73
2022-12-08T03:01:03.292Z,94.07
2022-12-08T03:03:39.824Z,93.93
2022-12-08T03:06:21.642Z,124.53
2022-12-08T03:08:56.678Z,96.27
2022-12-08T03:11:31.988Z,102.27
2022-12-08T03:14:03.703Z,91.70
2022-12-08T03:16:36.212Z,94.87
2022-12-08T03:19:11.615Z,96.83
2022-12-08T03:21:45.127Z,96.43
2022-12-08T03:24:35.939Z,93.23
2022-12-08T03:27:08.957Z,93.27
2022-12-08T03:29:59.516Z,96.50
2022-12-08T03:32:35.345Z,100.90
2022-12-08T03:35:06.830Z,101.40
2022-12-08T03:38:05.035Z,111.37
2022-12-08T03:40:33.904Z,223.43
2022-12-08T03:43:02.927Z,171.57
2022-12-08T03:45:31.978Z,158.53
2022-12-08T03:48:00.817Z,124.83
2022-12-08T03:50:29.846Z,101.03
2022-12-08T03:53:00.254Z,105.80
2022-12-08T03:55:29.127Z,104.93
2022-12-08T03:57:58.193Z,101.40
2022-12-08T04:00:27.227Z,112.47
2022-12-08T04:02:56.321Z,107.37
2022-12-08T04:05:25.331Z,113.10
2022-12-08T04:07:58.219Z,98.47
2022-12-08T04:10:28.810Z,101.37
2022-12-08T04:12:58.648Z,96.93
2022-12-08T04:15:27.648Z,101.20
2022-12-08T04:17:56.509Z,88.00
2022-12-08T04:20:25.271Z,90.00
2022-12-08T04:22:54.152Z,94.23
2022-12-08T04:25:23.216Z,121.17
2022-12-08T04:27:53.611Z,87.47
2022-12-08T04:30:22.486Z,94.37
2022-12-08T04:32:51.399Z,90.03
2022-12-08T04:35:20.389Z,89.00
2022-12-08T04:37:49.273Z,88.17
2022-12-08T04:40:19.856Z,97.53
2022-12-08T04:42:48.912Z,87.43
2022-12-08T04:45:19.527Z,85.90
2022-12-08T04:47:49.007Z,95.73
2022-12-08T04:50:18.317Z,103.53
2022-12-08T04:52:47.110Z,98.60
2022-12-08T04:55:16.078Z,97.33
2022-12-08T04:57:45.224Z,105.53
2022-12-08T05:00:16.922Z,109.17
2022-12-08T05:02:49.434Z,88.67
2022-12-08T05:05:18.965Z,106.97
2022-12-08T05:07:47.898Z,111.20
2022-12-08T05:10:16.829Z,119.97
2022-12-08T05:12:45.686Z,107.87
2022-12-08T05:15:14.592Z,130.10
2022-12-08T05:17:43.925Z,101.23
2022-12-08T05:20:14.943Z,123.60
2022-12-08T05:22:43.859Z,145.60
2022-12-08T05:25:12.889Z,119.93
2022-12-08T05:27:42.307Z,187.90
2022-12-08T05:30:11.488Z,137.37
2022-12-08T05:32:40.514Z,99.93
2022-12-08T05:35:10.004Z,130.60
2022-12-08T05:37:40.480Z,100.70
2022-12-08T05:40:10.970Z,110.37
2022-12-08T05:42:39.878Z,130.57
2022-12-08T05:45:10.068Z,95.87
2022-12-08T05:47:39.163Z,122.43
2022-12-08T05:50:09.317Z,95.07
2022-12-08T05:52:39.799Z,117.50
2022-12-08T05:55:27.440Z,111.07
2022-12-08T05:57:56.360Z,103.30
2022-12-08T06:00:25.347Z,102.30
2022-12-08T06:02:54.295Z,105.97
2022-12-08T06:05:23.262Z,97.97
2022-12-08T06:07:53.670Z,106.63
2022-12-08T06:10:22.712Z,95.53
2022-12-08T06:12:51.575Z,98.17
2022-12-08T06:15:20.447Z,86.20
2022-12-08T06:17:49.472Z,88.47
2022-12-08T06:20:18.565Z,108.63
2022-12-08T06:22:48.375Z,90.70
2022-12-08T06:25:19.101Z,79.90
2022-12-08T06:27:48.230Z,84.10
2022-12-08T06:30:17.740Z,81.17
2022-12-08T06:32:46.698Z,79.27
2022-12-08T06:35:15.557Z,71.53
2022-12-08T06:37:44.395Z,121.63
2022-12-08T06:40:14.295Z,69.40
2022-12-08T06:42:46.822Z,69.40
2022-12-08T06:45:18.192Z,129.70
2022-12-08T06:47:47.222Z,83.77
2022-12-08T06:50:16.143Z,58.27
2022-12-08T06:52:56.940Z,68.87
2022-12-08T06:58:22.853Z,52.63
2022-12-08T07:01:12.180Z,51.20
2022-12-08T07:03:44.823Z,56.90
2022-12-08T07:06:17.596Z,56.63
2022-12-08T07:08:46.808Z,49.43
2022-12-08T07:11:21.152Z,49.17
2022-12-08T07:13:52.692Z,57.03
2022-12-08T07:16:21.771Z,78.33
2022-12-08T07:18:50.710Z,72.97
2022-12-08T07:21:20.010Z,66.23
2022-12-08T07:23:55.952Z,60.70
2022-12-08T07:26:28.290Z,55.93
2022-12-08T07:28:59.427Z,54.63
2022-12-08T07:31:29.370Z,60.00
2022-12-08T07:33:59.010Z,57.07
2022-12-08T07:36:28.147Z,58.53
2022-12-08T07:38:57.077Z,50.03
2022-12-08T07:41:27.654Z,45.07
2022-12-08T07:43:58.546Z,48.90
2022-12-08T07:46:28.347Z,57.13
2022-12-08T07:48:57.667Z,51.50
2022-12-08T07:51:26.635Z,74.93
2022-12-08T07:53:55.749Z,76.30
2022-12-08T07:56:24.857Z,60.43
2022-12-08T07:58:53.863Z,65.17
2022-12-08T08:01:26.977Z,66.97
2022-12-08T08:03:57.569Z,57.60
2022-12-08T08:06:26.547Z,51.63
2022-12-08T08:08:55.475Z,44.73
2022-12-08T08:11:24.536Z,63.60
2022-12-08T08:13:53.987Z,118.47
2022-12-08T08:16:24.318Z,50.07
2022-12-08T08:18:54.138Z,92.63
2022-12-08T08:24:14.016Z,52.97
2022-12-08T08:26:42.860Z,70.73
2022-12-08T08:29:11.727Z,64.83
2022-12-08T08:31:43.081Z,51.40
2022-12-08T08:34:12.059Z,52.23
2022-12-08T08:36:42.371Z,54.67
2022-12-08T08:39:11.378Z,49.93
2022-12-08T08:41:40.330Z,59.00
2022-12-08T08:44:09.251Z,69.17
2022-12-08T08:46:38.134Z,48.07
2022-12-08T08:49:08.770Z,44.03
2022-12-08T08:51:40.972Z,63.07
2022-12-08T08:54:09.982Z,50.57
2022-12-08T08:56:38.938Z,62.93
2022-12-08T08:59:07.797Z,40.53
2022-12-08T09:01:36.941Z,43.10
2022-12-08T09:04:08.259Z,60.47
2022-12-08T09:06:37.475Z,40.23
2022-12-08T09:09:06.553Z,55.30
2022-12-08T09:11:35.586Z,40.57
2022-12-08T09:14:05.169Z,48.90
2022-12-08T09:16:38.921Z,51.33
2022-12-08T09:19:12.289Z,45.23
2022-12-08T09:21:41.663Z,40.83
2022-12-08T09:24:15.951Z,42.93
2022-12-08T09:26:46.049Z,46.20
2022-12-08T09:29:20.003Z,51.43
2022-12-08T09:31:49.162Z,73.50
2022-12-08T09:34:19.829Z,52.13
2022-12-08T09:36:48.995Z,47.00
2022-12-08T09:39:17.886Z,39.73
2022-12-08T09:41:51.269Z,70.47
2022-12-08T09:44:42.248Z,41.57
2022-12-08T09:47:19.131Z,56.50
2022-12-08T09:49:54.567Z,45.20
2022-12-08T09:52:27.617Z,42.27
2022-12-08T09:55:00.400Z,38.53
2022-12-08T09:57:31.119Z,44.03
2022-12-08T10:00:06.047Z,40.23
2022-12-08T10:02:35.521Z,52.93
2022-12-08T10:05:06.333Z,40.70
2022-12-08T10:07:45.185Z,43.13
2022-12-08T10:10:26.468Z,45.57
2022-12-08T10:13:02.194Z,45.73
2022-12-08T10:15:43.258Z,37.77
2022-12-08T10:18:16.859Z,39.53
2022-12-08T10:20:50.040Z,56.70
2022-12-08T10:23:31.221Z,48.67
2022-12-08T10:26:03.813Z,58.47
2022-12-08T10:28:37.670Z,42.00
2022-12-08T10:31:17.640Z,58.03
2022-12-08T10:33:48.446Z,31.50
2022-12-08T10:36:18.879Z,41.83
2022-12-08T10:38:47.965Z,59.30
2022-12-08T10:41:19.762Z,29.40
2022-12-08T10:43:51.263Z,32.30
2022-12-08T10:46:22.273Z,34.23
2022-12-08T10:48:54.143Z,28.47
2022-12-08T10:51:31.012Z,29.00
2022-12-08T10:54:00.321Z,31.00
2022-12-08T10:56:30.629Z,27.57
2022-12-08T10:59:18.959Z,48.27
2022-12-08T11:01:50.126Z,84.77
2022-12-08T11:04:21.815Z,34.80
2022-12-08T11:06:53.364Z,37.27
2022-12-08T11:09:36.834Z,53.13
2022-12-08T11:12:10.169Z,23.60
2022-12-08T11:14:51.172Z,33.33
2022-12-08T11:17:27.639Z,34.80
2022-12-08T11:20:02.151Z,45.40
2022-12-08T11:22:34.863Z,38.13
2022-12-08T11:25:11.929Z,33.23
2022-12-08T11:27:44.579Z,52.30
2022-12-08T11:30:16.506Z,71.17
2022-12-08T11:32:46.724Z,44.33
2022-12-08T11:35:24.402Z,50.63
2022-12-08T11:38:08.122Z,43.17
2022-12-08T11:40:46.834Z,48.63
2022-12-08T11:43:20.978Z,60.03
2022-12-08T11:45:54.691Z,35.97
2022-12-08T11:48:29.643Z,47.33
2022-12-08T11:51:03.327Z,36.73
2022-12-08T11:53:44.762Z,35.63
2022-12-08T11:56:21.737Z,42.47
2022-12-08T11:58:55.272Z,42.30
2022-12-08T12:01:26.269Z,39.33
2022-12-08T12:04:02.830Z,51.40
2022-12-08T12:06:59.044Z,51.73
2022-12-08T12:09:43.086Z,57.60
2022-12-08T12:12:29.034Z,46.27
2022-12-08T12:15:34.474Z,50.33
2022-12-08T12:18:06.157Z,64.83
2022-12-08T12:20:38.453Z,90.13
2022-12-08T12:23:10.314Z,71.70
2022-12-08T12:25:51.303Z,66.03
2022-12-08T12:28:21.891Z,81.83
2022-12-08T12:31:11.804Z,93.13
2022-12-08T12:33:40.930Z,69.33
2022-12-08T12:36:12.461Z,68.23
2022-12-08T12:39:06.581Z,76.43
2022-12-08T12:41:44.713Z,76.07
2022-12-08T12:44:44.691Z,91.47
2022-12-08T12:47:37.427Z,90.17
2022-12-08T12:50:10.910Z,68.80
2022-12-08T12:52:44.672Z,60.17
2022-12-08T12:55:54.648Z,46.00
2022-12-08T12:58:37.727Z,49.17
2022-12-08T13:01:51.401Z,47.50
2022-12-08T13:04:20.754Z,37.37
2022-12-08T13:06:51.803Z,39.07
2022-12-08T13:09:33.561Z,48.70
2022-12-08T13:12:25.281Z,72.77
2022-12-08T13:15:00.463Z,45.47
2022-12-08T13:17:32.166Z,40.93
2022-12-08T13:20:04.401Z,61.47
2022-12-08T13:23:04.554Z,51.40
2022-12-08T13:26:18.065Z,57.97
2022-12-08T13:29:24.344Z,55.50
2022-12-08T13:31:56.546Z,39.07
2022-12-08T13:34:36.070Z,44.63
2022-12-08T13:37:18.957Z,37.90
2022-12-08T13:39:53.604Z,106.60
2022-12-08T13:42:31.018Z,143.63
2022-12-08T13:45:48.512Z,241.03
2022-12-08T13:57:06.721Z,99.13
2022-12-08T13:59:35.954Z,75.47
2022-12-08T14:02:14.128Z,52.07
2022-12-08T14:05:17.054Z,54.47
2022-12-08T14:07:38.140Z,55.80
2022-12-08T14:10:11.381Z,46.07
2022-12-08T14:12:43.383Z,41.13
2022-12-08T14:15:16.670Z,70.20
2022-12-08T14:18:04.223Z,67.00
2022-12-08T14:20:58.060Z,79.30
2022-12-08T14:23:25.855Z,55.90
2022-12-08T14:25:55.115Z,59.33
2022-12-08T14:28:24.854Z,101.00
2022-12-08T14:30:56.874Z,81.10
2022-12-08T14:33:27.314Z,89.43
2022-12-08T14:35:58.272Z,98.30
2022-12-08T14:38:28.690Z,89.87
2022-12-08T14:41:05.633Z,90.67
2022-12-08T14:43:35.625Z,87.27
2022-12-08T14:46:06.589Z,82.83
2022-12-08T14:48:46.752Z,134.97
2022-12-08T14:51:27.635Z,282.13
2022-12-08T14:54:00.306Z,234.20
2022-12-08T14:56:34.838Z,184.70
2022-12-08T14:59:07.605Z,141.23
2022-12-08T15:01:37.998Z,450.30
2022-12-08T15:04:15.470Z,156.30
2022-12-08T15:06:54.043Z,149.33
2022-12-08T15:09:33.301Z,86.63
2022-12-08T15:12:03.695Z,126.37
2022-12-08T15:14:35.324Z,104.97
2022-12-08T15:17:04.863Z,109.77
2022-12-08T15:19:35.266Z,109.57
2022-12-08T15:22:15.019Z,114.23
2022-12-08T15:24:44.104Z,102.27
2022-12-08T15:27:18.882Z,95.03
2022-12-08T15:29:49.533Z,92.23
2022-12-08T15:32:22.284Z,89.67
2022-12-08T15:34:52.006Z,100.43
2022-12-08T15:37:26.529Z,109.00
2022-12-08T15:39:55.597Z,117.97
2022-12-08T15:42:24.463Z,112.70
2022-12-08T15:44:53.502Z,90.53
2022-12-08T15:47:24.967Z,115.40
2022-12-08T15:49:54.840Z,128.63
2022-12-08T15:52:26.482Z,146.60
2022-12-08T15:54:55.543Z,136.37
2022-12-08T15:58:04.067Z,113.93
2022-12-08T16:00:52.592Z,93.27
2022-12-08T16:03:59.765Z,83.23
2022-12-08T16:09:15.303Z,73.93
2022-12-08T16:12:07.300Z,85.03
2022-12-08T16:17:28.893Z,91.43
2022-12-08T16:19:57.857Z,108.27
2022-12-08T16:25:20.241Z,107.17
2022-12-08T16:28:03.189Z,105.83
2022-12-08T16:30:38.101Z,84.20
2022-12-08T16:33:07.700Z,80.90
2022-12-08T16:35:36.774Z,76.07
2022-12-08T16:38:05.994Z,80.23
2022-12-08T16:40:58.127Z,110.87
2022-12-08T16:43:26.061Z,78.70
2022-12-08T16:45:55.023Z,73.43
2022-12-08T16:48:24.028Z,130.63
2022-12-08T16:50:54.193Z,84.30
2022-12-08T16:53:23.704Z,51.27
2022-12-08T16:55:54.089Z,50.13
2022-12-08T16:58:23.111Z,54.43
2022-12-08T17:00:52.011Z,51.83
2022-12-08T17:03:21.167Z,64.10
2022-12-08T17:05:51.463Z,59.87
2022-12-08T17:08:20.583Z,58.37
2022-12-08T17:11:07.428Z,55.60
2022-12-08T17:13:39.972Z,59.33
2022-12-08T17:16:11.295Z,59.70
2022-12-08T17:18:40.416Z,55.67
2022-12-08T17:21:12.418Z,55.27
2022-12-08T17:23:42.348Z,56.30
2022-12-08T17:26:11.764Z,64.07
2022-12-08T17:29:00.011Z,60.07
2022-12-08T17:31:31.037Z,48.27
2022-12-08T17:34:00.754Z,54.37
2022-12-08T17:36:29.787Z,43.53
2022-12-08T17:39:01.283Z,50.17
2022-12-08T17:41:30.580Z,74.97
2022-12-08T17:44:00.871Z,49.43
2022-12-08T17:46:29.874Z,54.73
2022-12-08T17:48:58.884Z,48.50
2022-12-08T17:51:27.615Z,48.13
2022-12-08T17:53:56.649Z,51.43
2022-12-08T17:56:44.823Z,61.57
2022-12-08T17:59:15.967Z,60.07
2022-12-08T18:01:45.426Z,64.47
2022-12-08T18:04:14.848Z,60.40
2022-12-08T18:06:43.708Z,58.10
2022-12-08T18:09:12.877Z,55.43
2022-12-08T18:11:42.195Z,62.73
2022-12-08T18:14:11.777Z,60.97
2022-12-08T18:16:45.712Z,59.60
2022-12-08T18:19:15.620Z,58.27
2022-12-08T18:21:44.816Z,61.67
2022-12-08T18:24:21.059Z,51.57
2022-12-08T18:26:52.469Z,46.83
2022-12-08T18:29:22.058Z,47.37
2022-12-08T18:31:53.141Z,47.73
2022-12-08T18:34:22.484Z,50.13
2022-12-08T18:36:51.448Z,40.97
2022-12-08T18:39:25.604Z,50.43
2022-12-08T18:41:54.939Z,65.53
2022-12-08T18:44:24.281Z,71.07
2022-12-08T18:46:55.104Z,67.03
2022-12-08T18:49:24.066Z,65.60
2022-12-08T18:51:53.194Z,75.33
2022-12-08T18:54:31.593Z,94.40
2022-12-08T18:57:30.672Z,89.33
2022-12-08T18:59:59.663Z,133.23
2022-12-08T19:02:48.952Z,144.10
2022-12-08T19:05:18.439Z,148.70
2022-12-08T19:07:47.397Z,157.13
2022-12-08T19:10:16.367Z,135.90
2022-12-08T19:12:45.685Z,123.00
2022-12-08T19:15:14.718Z,110.20
2022-12-08T19:17:43.960Z,124.80
2022-12-08T19:20:16.461Z,130.13
2022-12-08T19:22:45.579Z,79.47
2022-12-08T19:25:14.614Z,71.10
2022-12-08T19:27:44.636Z,56.90
2022-12-08T19:30:14.868Z,57.03
2022-12-08T19:32:43.885Z,53.30
2022-12-08T19:35:14.411Z,55.53
2022-12-08T19:37:43.529Z,55.53
2022-12-08T19:40:31.140Z,63.73
2022-12-08T19:43:17.486Z,124.27
2022-12-08T19:45:46.702Z,89.87
2022-12-08T19:48:15.753Z,80.40
2022-12-08T19:50:46.295Z,62.83
2022-12-08T19:53:17.374Z,75.50
2022-12-08T19:55:46.638Z,134.83
2022-12-08T19:58:15.569Z,114.87
2022-12-08T20:00:45.334Z,110.97
2022-12-08T20:03:17.037Z,57.07
2022-12-08T20:05:49.864Z,87.47
2022-12-08T20:08:19.038Z,87.93
2022-12-08T20:10:48.154Z,134.63
2022-12-08T20:13:34.237Z,149.87
2022-12-08T20:16:03.278Z,134.23
2022-12-08T20:18:32.161Z,125.60
2022-12-08T20:21:02.585Z,101.93
2022-12-08T20:23:31.728Z,63.57
2022-12-08T20:26:05.803Z,69.70
2022-12-08T20:28:36.359Z,99.03
2022-12-08T20:31:06.019Z,140.00
2022-12-08T20:33:35.220Z,87.53
2022-12-08T20:36:07.784Z,115.17
2022-12-08T20:38:36.973Z,102.50
2022-12-08T20:41:10.237Z,67.63
2022-12-08T20:43:39.673Z,67.70
2022-12-08T20:46:27.273Z,66.30
2022-12-08T20:49:01.387Z,54.63
2022-12-08T20:51:51.587Z,64.67
2022-12-08T20:54:25.855Z,61.83
2022-12-08T20:56:55.894Z,97.00
2022-12-08T20:59:26.680Z,69.60
2022-12-08T21:01:56.650Z,67.43
2022-12-08T21:04:26.418Z,68.87
2022-12-08T21:06:57.040Z,74.40
2022-12-08T21:09:26.105Z,67.10
2022-12-08T21:11:55.806Z,56.67
2022-12-08T21:14:25.232Z,63.30
2022-12-08T21:16:54.783Z,68.00
2022-12-08T21:19:24.119Z,60.20
2022-12-08T21:21:53.444Z,56.83
2022-12-08T21:24:32.008Z,60.37
2022-12-08T21:27:03.612Z,73.03
2022-12-08T21:29:32.781Z,69.13
2022-12-08T21:32:02.189Z,60.67
2022-12-08T21:34:34.365Z,50.73
2022-12-08T21:37:03.761Z,50.33
2022-12-08T21:39:34.337Z,55.83
2022-12-08T21:42:22.833Z,52.37
2022-12-08T21:44:52.524Z,55.33
2022-12-08T21:47:21.552Z,65.87
2022-12-08T21:49:50.863Z,67.77
2022-12-08T21:52:20.286Z,62.43
2022-12-08T21:54:50.963Z,56.77
2022-12-08T21:57:20.624Z,81.33
2022-12-08T21:59:49.735Z,90.00
2022-12-08T22:02:22.426Z,89.80
2022-12-08T22:04:53.043Z,83.00
2022-12-08T22:07:23.094Z,86.53
2022-12-08T22:09:53.899Z,75.00
2022-12-08T22:12:23.275Z,80.50
2022-12-08T22:14:52.438Z,66.43
2022-12-08T22:17:21.452Z,62.10
2022-12-08T22:19:50.700Z,71.47
2022-12-08T22:22:19.680Z,65.30
2022-12-08T22:24:49.022Z,61.47
2022-12-08T22:27:19.564Z,51.47
2022-12-08T22:29:48.735Z,58.37
2022-12-08T22:32:17.905Z,57.13
2022-12-08T22:34:47.069Z,51.20
2022-12-08T22:37:16.417Z,45.43
2022-12-08T22:39:45.242Z,49.03
2022-12-08T22:42:15.200Z,50.13
2022-12-08T22:44:45.872Z,52.47
2022-12-08T22:47:15.084Z,68.67
2022-12-08T22:49:44.015Z,63.27
2022-12-08T22:52:12.991Z,55.47
2022-12-08T22:54:41.995Z,79.17
2022-12-08T22:57:11.129Z,71.67
2022-12-08T22:59:41.411Z,72.77
2022-12-08T23:02:11.953Z,114.57
2022-12-08T23:04:41.160Z,114.60
2022-12-08T23:07:10.288Z,102.47
2022-12-08T23:09:39.785Z,103.80
2022-12-08T23:12:09.069Z,99.13
2022-12-08T23:14:38.094Z,98.20
2022-12-08T23:17:07.527Z,84.77
2022-12-08T23:19:39.839Z,71.60
2022-12-08T23:22:27.216Z,85.93
2022-12-08T23:24:56.170Z,95.20
2022-12-08T23:27:25.376Z,100.47
2022-12-08T23:29:54.383Z,63.43
2022-12-08T23:32:23.333Z,105.53
2022-12-08T23:34:53.772Z,125.13
2022-12-08T23:37:22.823Z,133.53
2022-12-08T23:39:51.845Z,134.77
2022-12-08T23:42:20.957Z,101.43
2022-12-08T23:44:50.171Z,98.63
2022-12-08T23:47:19.245Z,77.17
2022-12-08T23:49:48.299Z,72.13
2022-12-08T23:52:18.664Z,56.93
2022-12-08T23:54:48.223Z,61.30
2022-12-08T23:57:24.795Z,78.97
2022-12-08T23:59:54.624Z,80.13
